Time;durP1;ratioP1;P1;durP2;ratioP2;P2;SDS_P1;SDS_P2;PMS_P1;PMS_P2;Temp;Humidity;BMP_temperature;BMP_pressure;BME280_temperature;BME280_humidity;BME280_pressure;Samples;Min_cycle;Max_cycle;Signal;HPM_P1;HPM_P2
2023/07/09 00:03:51;;;;;;;0.73;0.70;;;;;;;20.75;57.72;97050.41;10295916;28;20274;-30
2023/07/09 00:08:52;;;;;;;0.95;0.65;;;;;;;20.65;58.17;97056.34;10294100;28;20034;-30
2023/07/09 00:13:52;;;;;;;0.65;0.60;;;;;;;20.55;58.49;97052.13;10287547;28;20023;-30
2023/07/09 00:18:52;;;;;;;0.77;0.70;;;;;;;20.49;58.24;97054.72;10345077;28;20093;-32
2023/07/09 00:23:53;;;;;;;0.90;0.75;;;;;;;20.45;58.25;97047.94;10313788;28;20050;-31
2023/07/09 00:28:53;;;;;;;0.97;0.60;;;;;;;20.41;58.28;97053.03;10321524;28;20046;-30
2023/07/09 00:33:55;;;;;;;0.80;0.60;;;;;;;20.42;58.29;97057.28;10310871;28;20403;-30
2023/07/09 00:38:59;;;;;;;0.60;0.40;;;;;;;20.42;58.04;97058.97;10332180;28;20402;-30
2023/07/09 00:44:36;;;;;;;1.10;0.82;;;;;;;20.42;58.22;97059.81;10350868;28;20036;-30
2023/07/09 00:49:46;;;;;;;1.00;0.80;;;;;;;20.44;59.29;97053.88;10328141;28;20506;-30
2023/07/09 00:54:46;;;;;;;1.05;0.70;;;;;;;20.66;58.39;97059.75;10323119;28;20418;-30
2023/07/09 00:59:52;;;;;;;0.70;0.63;;;;;;;20.74;57.60;97053.78;10311388;28;20030;-29
2023/07/09 01:05:00;;;;;;;0.57;0.57;;;;;;;20.63;58.19;97059.78;10339745;28;20121;-30
2023/07/09 01:10:01;;;;;;;1.10;0.50;;;;;;;20.54;58.25;97060.63;10307779;28;20041;-29
2023/07/09 01:15:01;;;;;;;0.82;0.52;;;;;;;20.49;58.28;97062.34;10324424;28;20415;-30
2023/07/09 01:20:03;;;;;;;1.10;0.80;;;;;;;20.45;58.14;97053.03;10328385;28;20041;-29
2023/07/09 01:25:06;;;;;;;1.02;0.68;;;;;;;20.43;58.19;97057.28;10331566;28;20284;-30
2023/07/09 01:30:17;;;;;;;0.77;0.60;;;;;;;20.42;58.15;97055.59;10315142;28;20035;-30
2023/07/09 01:35:21;;;;;;;0.77;0.52;;;;;;;20.42;58.25;97050.50;10314485;28;20045;-30
2023/07/09 01:40:24;;;;;;;0.68;0.52;;;;;;;20.42;57.93;97048.81;10307905;28;20050;-30
2023/07/09 01:45:25;;;;;;;0.70;0.57;;;;;;;20.51;58.31;97050.47;10327310;28;20034;-30
2023/07/09 01:50:26;;;;;;;0.65;0.52;;;;;;;20.70;58.37;97046.16;10298310;28;20034;-30
2023/07/09 01:55:28;;;;;;;0.80;0.70;;;;;;;20.73;57.58;97041.91;10314612;28;20499;-31
2023/07/09 02:00:28;;;;;;;1.27;0.98;;;;;;;20.61;58.35;97049.59;10313917;28;20035;-31
2023/07/09 02:05:31;;;;;;;0.60;0.50;;;;;;;20.52;58.29;97044.53;10323683;28;20042;-30
2023/07/09 02:10:32;;;;;;;2.17;0.70;;;;;;;20.49;58.22;97052.19;10302198;28;20034;-31
2023/07/09 02:15:33;;;;;;;1.02;0.60;;;;;;;20.45;58.30;97052.19;10307946;28;20147;-30
2023/07/09 02:20:34;;;;;;;0.70;0.70;;;;;;;20.45;58.25;97050.47;10313660;28;20486;-30
2023/07/09 02:25:34;;;;;;;0.67;0.60;;;;;;;20.43;58.15;97054.72;10342086;28;20042;-30
2023/07/09 02:30:35;;;;;;;0.73;0.73;;;;;;;20.42;58.12;97060.66;10321719;28;20290;-29
2023/07/09 02:35:35;;;;;;;0.80;0.70;;;;;;;20.43;58.00;97053.88;10322692;28;20032;-30
2023/07/09 02:40:36;;;;;;;0.82;0.73;;;;;;;20.51;58.42;97058.09;10326553;28;20041;-30
2023/07/09 02:45:36;;;;;;;0.90;0.70;;;;;;;20.72;58.29;97057.19;10344252;28;20035;-30
2023/07/09 02:50:36;;;;;;;0.80;0.80;;;;;;;20.72;57.67;97049.56;10333469;28;20038;-30
2023/07/09 02:55:37;;;;;;;0.60;0.60;;;;;;;20.58;58.28;97059.78;10320617;28;20094;-30
2023/07/09 03:00:37;;;;;;;0.50;0.50;;;;;;;20.51;57.97;97058.09;10342723;28;20577;-30
2023/07/09 03:05:37;;;;;;;0.47;0.47;;;;;;;20.48;58.08;97063.19;10333032;28;20297;-30
2023/07/09 03:10:38;;;;;;;0.73;0.60;;;;;;;20.45;58.22;97060.66;10327288;28;20050;-29
2023/07/09 03:15:38;;;;;;;0.40;0.40;;;;;;;20.45;58.24;97064.91;10320255;28;20168;-29
2023/07/09 03:20:45;;;;;;;0.98;0.82;;;;;;;20.44;58.18;97068.28;10539470;27;20807;-29
2023/07/09 03:25:46;;;;;;;0.80;0.50;;;;;;;20.43;57.97;97061.50;10449671;28;20033;-28
2023/07/09 03:30:47;;;;;;;0.87;0.53;;;;;;;20.40;58.01;97062.34;10444738;28;20033;-29
2023/07/09 03:35:50;;;;;;;1.00;0.70;;;;;;;20.59;58.31;97069.09;10444371;28;20554;-29
2023/07/09 03:40:52;;;;;;;0.70;0.65;;;;;;;20.75;58.31;97072.44;10443061;28;20055;-28
2023/07/09 03:45:53;;;;;;;0.50;0.40;;;;;;;20.72;57.64;97075.00;10448857;28;20028;-29
2023/07/09 03:50:53;;;;;;;0.53;0.50;;;;;;;20.60;57.91;97075.88;10458987;28;20040;-30
2023/07/09 03:55:55;;;;;;;0.50;0.50;;;;;;;20.55;58.29;97076.75;10472312;28;20499;-29
2023/07/09 04:00:55;;;;;;;0.52;0.50;;;;;;;20.51;58.35;97085.22;10454457;28;20045;-29
2023/07/09 04:05:56;;;;;;;1.00;0.60;;;;;;;20.50;58.23;97084.38;10456948;28;20033;-30
2023/07/09 04:11:01;;;;;;;1.03;0.67;;;;;;;20.46;58.05;97077.59;10454347;28;20037;-29
2023/07/09 04:16:02;;;;;;;0.75;0.57;;;;;;;20.45;57.99;97085.25;10446054;28;20331;-29
2023/07/09 04:21:02;;;;;;;0.70;0.60;;;;;;;20.45;58.09;97083.53;10451029;28;20057;-29
2023/07/09 04:26:03;;;;;;;0.47;0.47;;;;;;;20.44;58.06;97083.53;10449868;28;20388;-29
2023/07/09 04:31:04;;;;;;;1.38;0.52;;;;;;;20.64;58.33;97090.28;10420535;28;20044;-29
2023/07/09 04:36:06;;;;;;;0.60;0.60;;;;;;;20.79;58.26;97084.31;10443513;28;20040;-29
2023/07/09 04:41:06;;;;;;;0.75;0.50;;;;;;;20.72;57.56;97086.00;10426542;28;20069;-29
2023/07/09 04:46:07;;;;;;;0.83;0.77;;;;;;;20.61;58.26;97090.28;10413899;28;20029;-29
2023/07/09 04:51:08;;;;;;;0.30;0.30;;;;;;;20.54;58.18;97086.06;10422890;28;20033;-29
2023/07/09 04:56:09;;;;;;;0.52;0.52;;;;;;;20.52;58.17;97086.91;10424412;28;20040;-29
2023/07/09 05:01:10;;;;;;;0.63;0.55;;;;;;;20.49;58.16;97081.84;10426113;28;20128;-28
2023/07/09 05:06:10;;;;;;;0.88;0.50;;;;;;;20.47;58.05;97079.28;10421696;28;20033;-28
2023/07/09 05:11:10;;;;;;;0.60;0.57;;;;;;;20.46;58.06;97077.59;10418724;28;20116;-30
2023/07/09 05:16:11;;;;;;;0.63;0.50;;;;;;;20.47;58.08;97075.91;10418487;28;20040;-29
2023/07/09 05:21:11;;;;;;;0.30;0.30;;;;;;;20.45;57.95;97077.63;10424697;28;20056;-28
2023/07/09 05:26:12;;;;;;;0.80;0.50;;;;;;;20.64;58.35;97069.09;10429501;28;20061;-29
2023/07/09 05:31:12;;;;;;;0.83;0.63;;;;;;;20.78;58.05;97068.19;10420524;28;20282;-29
2023/07/09 05:36:15;;;;;;;0.63;0.60;;;;;;;20.68;57.78;97069.06;10425882;28;20040;-29
2023/07/09 05:41:16;;;;;;;0.47;0.45;;;;;;;20.59;58.13;97079.28;10428906;28;20302;-30
2023/07/09 05:46:16;;;;;;;0.60;0.50;;;;;;;20.55;58.21;97087.75;10422558;28;20381;-29
2023/07/09 05:51:17;;;;;;;0.67;0.50;;;;;;;20.53;57.98;97083.50;10414670;28;20032;-29
2023/07/09 05:56:17;;;;;;;0.60;0.60;;;;;;;20.51;58.23;97070.81;10421368;28;20033;-29
2023/07/09 06:01:20;;;;;;;1.00;0.70;;;;;;;20.50;58.18;97081.84;10419793;28;20337;-29
2023/07/09 06:06:20;;;;;;;1.08;0.70;;;;;;;20.49;58.06;97076.75;10410789;28;20056;-29
2023/07/09 06:11:23;;;;;;;0.90;0.77;;;;;;;20.48;57.79;97080.97;10418084;28;20044;-29
2023/07/09 06:16:23;;;;;;;0.70;0.60;;;;;;;20.49;58.61;97074.22;10410532;28;20288;-29
2023/07/09 06:21:24;;;;;;;0.88;0.50;;;;;;;20.69;58.28;97075.84;10418448;28;20041;-31
2023/07/09 06:26:24;;;;;;;1.07;0.70;;;;;;;20.82;58.01;97072.41;10418713;28;20035;-29
2023/07/09 06:31:25;;;;;;;0.40;0.40;;;;;;;20.72;58.24;97070.75;10411104;28;20086;-28
2023/07/09 06:36:25;;;;;;;0.30;0.30;;;;;;;20.62;58.28;97074.16;10410144;28;20107;-29
2023/07/09 06:41:28;;;;;;;0.82;0.60;;;;;;;20.58;58.50;97067.41;10417598;28;20136;-29
2023/07/09 06:46:28;;;;;;;0.40;0.25;;;;;;;20.54;58.20;97070.81;10424666;28;20043;-29
2023/07/09 06:51:29;;;;;;;0.43;0.35;;;;;;;20.54;58.14;97064.88;10433617;28;20411;-29
2023/07/09 06:56:29;;;;;;;0.47;0.47;;;;;;;20.50;58.10;97058.09;10418118;28;20435;-29
2023/07/09 07:01:29;;;;;;;0.30;0.30;;;;;;;20.51;58.21;97064.88;10425133;28;20507;-29
2023/07/09 07:06:30;;;;;;;0.73;0.63;;;;;;;20.51;58.13;97060.66;10417981;28;20025;-29
2023/07/09 07:11:31;;;;;;;0.52;0.43;;;;;;;20.52;59.05;97051.31;10423095;28;20491;-29
2023/07/09 07:16:31;;;;;;;0.77;0.50;;;;;;;20.73;58.29;97041.91;10408990;28;20483;-29
2023/07/09 07:21:32;;;;;;;0.60;0.50;;;;;;;20.82;57.79;97038.47;10432671;28;20287;-29
2023/07/09 07:26:32;;;;;;;0.55;0.40;;;;;;;20.71;58.00;97035.16;10416796;28;20034;-29
2023/07/09 07:31:33;;;;;;;0.60;0.50;;;;;;;20.63;58.54;97034.31;10415968;28;20091;-28
2023/07/09 07:36:33;;;;;;;0.50;0.50;;;;;;;20.59;58.09;97040.25;10416340;28;20044;-29
2023/07/09 07:41:33;;;;;;;0.60;0.50;;;;;;;20.56;58.07;97046.19;10418443;28;20049;-29
2023/07/09 07:46:34;;;;;;;0.90;0.60;;;;;;;20.55;58.75;97041.97;10416754;28;20124;-29
2023/07/09 07:51:35;;;;;;;0.95;0.82;;;;;;;20.54;58.26;97036.91;10414398;28;20042;-29
2023/07/09 07:56:38;;;;;;;0.77;0.70;;;;;;;20.52;58.15;97036.91;10433411;28;20487;-29
2023/07/09 08:01:39;;;;;;;0.80;0.60;;;;;;;20.53;58.52;97042.81;10408107;28;20407;-29
2023/07/09 08:06:39;;;;;;;0.50;0.50;;;;;;;20.62;58.73;97038.56;10416581;28;20029;-29
2023/07/09 08:11:40;;;;;;;0.47;0.40;;;;;;;20.79;58.11;97036.78;10423492;28;20038;-28
2023/07/09 08:16:40;;;;;;;0.50;0.50;;;;;;;20.85;57.55;97034.22;10425610;28;20083;-31
2023/07/09 08:21:41;;;;;;;0.50;0.50;;;;;;;20.72;58.22;97030.03;10417731;28;20083;-29
2023/07/09 08:26:41;;;;;;;0.40;0.40;;;;;;;20.65;58.38;97033.44;10414762;28;20113;-29
2023/07/09 08:31:41;;;;;;;0.60;0.57;;;;;;;20.61;58.43;97034.31;10419668;28;20095;-29
2023/07/09 08:36:42;;;;;;;0.55;0.50;;;;;;;20.59;58.31;97038.56;10422863;28;20109;-29
2023/07/09 08:41:46;;;;;;;0.60;0.40;;;;;;;20.58;58.68;97041.97;10431258;28;20048;-29
2023/07/09 08:47:07;;;;;;;0.90;0.60;;;;;;;20.58;58.45;97044.53;10422055;28;20316;-28
2023/07/09 08:52:18;;;;;;;0.63;0.60;;;;;;;20.58;58.51;97041.13;10413634;28;20561;-29
2023/07/09 08:57:25;;;;;;;0.57;0.50;;;;;;;20.57;58.64;97050.44;10436391;28;20025;-29
2023/07/09 09:02:38;;;;;;;0.75;0.75;;;;;;;20.70;58.76;97059.72;10431761;28;20671;-29
2023/07/09 09:07:42;;;;;;;0.80;0.70;;;;;;;20.86;58.14;97047.81;10428469;28;20032;-30
2023/07/09 09:13:05;;;;;;;0.77;0.68;;;;;;;20.84;57.93;97052.91;10420230;28;20482;-30
2023/07/09 09:18:20;;;;;;;0.63;0.47;;;;;;;20.71;58.90;97023.25;10412643;28;20025;-29
2023/07/09 09:23:21;;;;;;;0.38;0.38;;;;;;;20.64;58.56;97019.03;10416039;28;20037;-29
2023/07/09 09:28:24;;;;;;;0.90;0.60;;;;;;;20.62;58.48;97015.66;10412240;28;20040;-29
2023/07/09 09:33:25;;;;;;;0.88;0.60;;;;;;;20.61;58.82;97016.50;10420139;28;20041;-29
2023/07/09 09:38:25;;;;;;;0.90;0.70;;;;;;;20.60;58.55;97009.72;10411940;28;20033;-30
2023/07/09 09:43:32;;;;;;;1.00;0.80;;;;;;;20.59;58.52;97013.13;10419903;28;20045;-29
2023/07/09 09:48:33;;;;;;;1.10;0.80;;;;;;;20.57;58.60;96999.56;10427789;28;20025;-29
2023/07/09 09:53:44;;;;;;;0.65;0.52;;;;;;;20.59;58.55;97002.97;10420005;28;20399;-29
2023/07/09 09:58:52;;;;;;;0.65;0.65;;;;;;;20.77;58.96;97013.06;10420567;28;20032;-29
2023/07/09 10:03:56;;;;;;;0.80;0.70;;;;;;;20.91;58.17;97010.47;10427307;28;20037;-28
2023/07/09 10:09:35;;;;;;;0.68;0.50;;;;;;;20.80;58.72;97005.41;10418798;28;20064;-29
2023/07/09 10:14:58;;;;;;;1.17;0.80;;;;;;;20.72;58.87;96999.50;10422581;28;20064;-29
2023/07/09 10:20:11;;;;;;;0.80;0.70;;;;;;;20.65;58.89;96997.81;10409892;28;20113;-29
2023/07/09 10:25:45;;;;;;;0.52;0.50;;;;;;;20.64;58.70;97006.31;10418188;28;20030;-29
2023/07/09 10:31:06;;;;;;;0.82;0.73;;;;;;;20.62;58.70;97002.94;10415153;28;20037;-29
2023/07/09 10:36:25;;;;;;;0.80;0.70;;;;;;;20.61;58.66;97001.25;10414832;28;20480;-29
2023/07/09 10:41:26;;;;;;;0.63;0.63;;;;;;;20.61;58.83;96991.06;10418364;28;20033;-29
2023/07/09 10:46:32;;;;;;;0.70;0.60;;;;;;;20.61;58.82;96998.72;10417904;28;20041;-30
2023/07/09 10:51:38;;;;;;;1.70;0.83;;;;;;;20.73;58.94;96993.56;10409682;28;20545;-29
2023/07/09 10:56:39;;;;;;;0.95;0.70;;;;;;;20.89;58.67;96986.75;10424509;28;20291;-29
2023/07/09 11:01:43;;;;;;;0.50;0.50;;;;;;;20.84;58.71;96994.38;10417563;28;20492;-29
2023/07/09 11:06:48;;;;;;;0.50;0.50;;;;;;;20.75;58.94;96981.69;10425860;28;20503;-29
2023/07/09 11:11:54;;;;;;;1.13;0.80;;;;;;;20.70;59.06;96980.84;10424635;28;20029;-29
2023/07/09 11:16:58;;;;;;;1.00;0.50;;;;;;;20.67;58.80;96985.97;10412664;28;20043;-31
2023/07/09 11:22:21;;;;;;;0.80;0.80;;;;;;;20.66;59.02;96979.19;10420080;28;20120;-31
2023/07/09 11:27:27;;;;;;;1.08;0.73;;;;;;;20.64;59.06;96975.78;10425094;28;20415;-34
2023/07/09 11:32:28;;;;;;;;;;;;;;;20.65;58.80;96977.47;10417782;28;20029;-30
2023/07/09 11:37:29;;;;;;;0.50;0.47;;;;;;;20.63;59.14;96971.56;10422799;28;19913;-31
2023/07/09 11:42:32;;;;;;;0.50;0.50;;;;;;;20.65;60.30;96972.38;10420002;28;20039;-33
2023/07/09 11:47:53;;;;;;;0.60;0.55;;;;;;;20.85;58.65;96974.84;10430892;28;20072;-31
2023/07/09 11:53:12;;;;;;;1.10;0.82;;;;;;;20.94;58.02;96970.59;10426782;28;20033;-31
2023/07/09 11:58:15;;;;;;;1.10;1.00;;;;;;;20.84;58.98;96973.16;10428150;28;20033;-31
2023/07/09 12:03:20;;;;;;;2.60;1.25;;;;;;;20.75;59.11;96974.06;10426233;28;20037;-31
2023/07/09 12:08:28;;;;;;;0.95;0.93;;;;;;;20.71;58.97;96967.28;10419915;28;20029;-32
2023/07/09 12:13:28;;;;;;;0.65;0.60;;;;;;;20.69;59.34;96952.88;10424592;28;20025;-31
2023/07/09 12:18:29;;;;;;;0.60;0.60;;;;;;;20.67;59.25;96947.81;10419107;28;20025;-31
2023/07/09 12:23:32;;;;;;;0.68;0.63;;;;;;;20.66;59.16;96947.78;10438179;28;20040;-32
2023/07/09 12:28:33;;;;;;;0.90;0.70;;;;;;;20.68;59.20;96948.63;10417527;28;20131;-31
2023/07/09 12:33:33;;;;;;;1.30;0.90;;;;;;;20.66;58.97;96946.13;10422179;28;20049;-31
2023/07/09 12:38:43;;;;;;;1.23;0.90;;;;;;;20.75;59.38;96933.34;10419698;28;20044;-30
2023/07/09 12:43:43;;;;;;;0.70;0.70;;;;;;;20.90;58.88;96940.91;10421554;28;20316;-32
2023/07/09 12:48:46;;;;;;;0.73;0.70;;;;;;;20.93;58.36;96927.31;10429838;28;20059;-31
2023/07/09 12:53:47;;;;;;;1.42;1.02;;;;;;;20.82;59.01;96923.97;10430280;28;20136;-31
2023/07/09 12:58:47;;;;;;;0.60;0.60;;;;;;;20.75;59.31;96928.25;10414234;28;20033;-31
2023/07/09 13:03:55;;;;;;;0.50;0.50;;;;;;;20.70;59.11;96929.97;10413631;28;20057;-31
2023/07/09 13:08:59;;;;;;;0.90;0.68;;;;;;;20.71;59.28;96925.75;10418406;28;20017;-30
2023/07/09 13:14:04;;;;;;;0.70;0.70;;;;;;;20.71;59.04;96920.66;10421392;28;20506;-30
2023/07/09 13:19:05;;;;;;;0.98;0.68;;;;;;;20.66;59.20;96920.69;10412246;28;20411;-31
2023/07/09 13:24:23;;;;;;;0.97;0.80;;;;;;;20.69;59.07;96920.66;10428795;28;20212;-31
2023/07/09 13:29:23;;;;;;;1.05;0.70;;;;;;;20.70;59.20;96914.69;10412050;28;20087;-31
2023/07/09 13:34:25;;;;;;;0.98;0.88;;;;;;;20.86;59.21;96911.25;10420629;28;20056;-32
2023/07/09 13:39:26;;;;;;;0.88;0.82;;;;;;;20.98;58.82;96895.88;10412412;28;20116;-31
2023/07/09 13:44:29;;;;;;;0.73;0.73;;;;;;;20.92;58.82;96901.03;10428344;28;20472;-31
2023/07/09 13:49:30;;;;;;;0.90;0.80;;;;;;;20.83;59.46;96897.66;10411911;28;20292;-31
2023/07/09 13:54:35;;;;;;;0.73;0.73;;;;;;;20.78;59.21;96891.75;10416177;28;20052;-31
2023/07/09 13:59:35;;;;;;;0.70;0.50;;;;;;;20.75;59.22;96877.38;10419442;28;20032;-31
2023/07/09 14:04:35;;;;;;;0.70;0.67;;;;;;;20.73;59.37;96879.03;10428899;28;20033;-30
2023/07/09 14:09:36;;;;;;;0.70;0.60;;;;;;;20.73;59.38;96870.59;10418905;28;20480;-31
2023/07/09 14:14:36;;;;;;;0.93;0.67;;;;;;;20.72;59.11;96876.53;10419559;28;20040;-31
2023/07/09 14:19:36;;;;;;;1.37;0.70;;;;;;;20.70;59.28;96858.72;10409885;28;20094;-31
2023/07/09 14:24:37;;;;;;;1.47;0.90;;;;;;;20.72;60.50;96859.56;10419967;28;20045;-31
2023/07/09 14:29:37;;;;;;;0.70;0.60;;;;;;;20.91;59.40;96848.44;10409937;28;20034;-31
2023/07/09 14:34:39;;;;;;;1.00;0.90;;;;;;;20.99;58.40;96851.75;10422520;28;20033;-31
2023/07/09 14:39:40;;;;;;;1.10;0.75;;;;;;;20.89;59.26;96854.41;10416779;28;20053;-31
2023/07/09 14:44:40;;;;;;;1.13;0.83;;;;;;;20.82;59.34;96860.34;10432911;28;20550;-31
2023/07/09 14:49:41;;;;;;;0.67;0.57;;;;;;;20.77;59.42;96860.38;10411788;28;20032;-31
2023/07/09 14:54:42;;;;;;;0.75;0.75;;;;;;;20.75;59.81;96862.09;10409372;28;20034;-32
2023/07/09 14:59:42;;;;;;;0.70;0.70;;;;;;;20.74;59.30;96860.41;10433696;28;20029;-31
2023/07/09 15:04:43;;;;;;;0.90;0.87;;;;;;;20.73;59.25;96858.69;10409158;28;20516;-32
2023/07/09 15:09:44;;;;;;;0.77;0.73;;;;;;;20.72;59.22;96857.00;10408809;28;20026;-31
2023/07/09 15:14:44;;;;;;;1.10;1.00;;;;;;;20.72;59.45;96862.09;10416188;28;20486;-31
2023/07/09 15:19:45;;;;;;;0.80;0.70;;;;;;;20.83;59.61;96867.97;10409735;28;20033;-31
2023/07/09 15:24:45;;;;;;;1.53;0.90;;;;;;;20.99;59.22;96850.91;10409917;28;20049;-31
2023/07/09 15:29:46;;;;;;;0.75;0.70;;;;;;;20.99;58.71;96849.19;10424967;28;20029;-31
2023/07/09 15:34:46;;;;;;;1.13;1.00;;;;;;;20.87;59.54;96839.13;10410922;28;20032;-31
2023/07/09 15:39:46;;;;;;;0.63;0.60;;;;;;;20.81;59.41;96836.59;10410212;28;20099;-31
2023/07/09 15:44:48;;;;;;;0.67;0.67;;;;;;;20.78;59.33;96834.06;10417962;28;20041;-31
2023/07/09 15:49:49;;;;;;;1.92;0.85;;;;;;;20.75;59.65;96836.66;10412268;28;20025;-31
2023/07/09 15:54:50;;;;;;;1.08;0.80;;;;;;;20.75;59.30;96834.09;10416338;28;20459;-31
2023/07/09 15:59:50;;;;;;;1.65;0.90;;;;;;;20.75;60.28;96835.78;10423534;28;20018;-31
2023/07/09 16:04:53;;;;;;;2.83;1.10;;;;;;;20.75;60.48;96836.66;10416153;28;20032;-31
2023/07/09 16:09:53;;;;;;;2.50;0.82;;;;;;;20.92;60.90;96834.00;10430948;28;20276;-31
2023/07/09 16:14:54;;;;;;;10.50;1.67;;;;;;;21.06;60.47;96833.03;10432161;28;20047;-32
2023/07/09 16:19:54;;;;;;;10.65;1.20;;;;;;;20.98;60.34;96833.97;10440965;28;20396;-32
2023/07/09 16:24:55;;;;;;;5.95;1.73;;;;;;;20.88;60.76;96838.25;10434337;28;20040;-32
2023/07/09 16:29:55;;;;;;;6.23;1.23;;;;;;;20.86;60.54;96839.97;10447502;28;20033;-30
2023/07/09 16:34:55;;;;;;;7.10;1.63;;;;;;;20.87;61.25;96828.94;10442951;28;20048;-32
2023/07/09 16:39:56;;;;;;;5.87;1.10;;;;;;;20.84;60.52;96828.94;10435078;28;20120;-33
2023/07/09 16:44:56;;;;;;;4.27;1.33;;;;;;;20.80;60.10;96823.88;10436422;28;20044;-30
2023/07/09 16:49:56;;;;;;;6.97;1.40;;;;;;;20.80;60.76;96837.44;10443678;28;20048;-30
2023/07/09 16:54:57;;;;;;;5.40;1.60;;;;;;;21.00;60.50;96833.09;10430788;28;20590;-31
2023/07/09 17:00:23;;;;;;;3.20;1.55;;;;;;;21.11;59.51;96831.28;10418705;28;21001;-31
2023/07/09 17:05:25;;;;;;;4.78;1.55;;;;;;;21.00;60.06;96832.25;10429469;28;20053;-31
2023/07/09 17:10:25;;;;;;;3.45;1.40;;;;;;;20.90;59.74;96828.91;10428067;28;20036;-31
2023/07/09 17:15:33;;;;;;;2.20;1.45;;;;;;;20.85;60.05;96823.00;10448164;28;20037;-31
2023/07/09 17:20:33;;;;;;;2.22;2.00;;;;;;;20.87;60.06;96826.41;10431208;28;20076;-31
2023/07/09 17:25:36;;;;;;;4.28;2.28;;;;;;;20.86;60.08;96824.72;10441821;28;20098;-31
2023/07/09 17:30:37;;;;;;;7.00;2.40;;;;;;;20.87;59.64;96828.94;10446912;28;20020;-31
2023/07/09 17:35:39;;;;;;;5.17;1.80;;;;;;;21.00;60.73;96833.09;10447228;28;20041;-33
2023/07/09 17:40:39;;;;;;;5.00;3.05;;;;;;;21.15;59.86;96825.31;10443152;28;20025;-31
2023/07/09 17:45:40;;;;;;;5.80;2.35;;;;;;;21.09;59.46;96820.28;10447323;28;20040;-31
2023/07/09 17:50:41;;;;;;;7.37;4.27;;;;;;;21.04;61.22;96827.09;10441491;28;20025;-31
2023/07/09 17:55:41;;;;;;;16.70;4.65;;;;;;;21.04;61.30;96828.81;10440949;28;20033;-31
2023/07/09 18:00:41;;;;;;;13.23;4.17;;;;;;;21.00;60.17;96833.09;10445633;28;20033;-29
2023/07/09 18:05:42;;;;;;;9.93;3.78;;;;;;;21.00;60.19;96838.19;10443743;28;20415;-31
2023/07/09 18:10:44;;;;;;;12.82;3.95;;;;;;;20.96;60.32;96835.69;10435362;28;20064;-31
2023/07/09 18:15:45;;;;;;;9.65;3.53;;;;;;;20.98;60.38;96839.06;10449640;28;20028;-31
2023/07/09 18:20:46;;;;;;;7.22;3.13;;;;;;;21.10;60.55;96844.88;10449909;28;20028;-32
2023/07/09 18:25:49;;;;;;;15.13;2.80;;;;;;;21.26;60.50;96855.78;10446139;28;20415;-31
2023/07/09 18:30:50;;;;;;;9.35;3.20;;;;;;;21.13;59.59;96849.94;10435641;28;20407;-30
2023/07/09 18:35:50;;;;;;;6.77;2.83;;;;;;;21.07;60.12;96855.06;10447257;28;20047;-31
2023/07/09 18:40:52;;;;;;;8.17;3.00;;;;;;;21.04;60.05;96846.66;10443741;28;20083;-32
2023/07/09 18:45:52;;;;;;;7.45;3.05;;;;;;;21.02;59.92;96844.09;10443027;28;20115;-32
2023/07/09 18:50:55;;;;;;;9.80;2.37;;;;;;;21.00;59.96;96848.38;10443393;28;20037;-31
2023/07/09 18:55:56;;;;;;;3.60;2.00;;;;;;;21.07;60.35;96849.97;10446621;28;20067;-32
2023/07/09 19:00:58;;;;;;;3.25;2.00;;;;;;;21.26;60.13;96856.63;10443186;28;20337;-32
2023/07/09 19:05:59;;;;;;;3.72;2.17;;;;;;;21.20;59.56;96849.03;10446082;28;20049;-31
2023/07/09 19:11:01;;;;;;;8.45;2.67;;;;;;;21.07;59.78;96857.63;10444013;28;20491;-32
2023/07/09 19:16:03;;;;;;;5.07;2.28;;;;;;;21.03;59.59;96865.28;10446092;28;20102;-32
2023/07/09 19:21:04;;;;;;;5.32;2.13;;;;;;;20.99;59.73;96869.56;10439963;28;20116;-32
2023/07/09 19:26:04;;;;;;;6.25;2.33;;;;;;;20.99;59.95;96872.09;10447342;28;20037;-31
2023/07/09 19:31:05;;;;;;;3.00;2.10;;;;;;;20.97;59.69;96888.28;10446757;28;20499;-32
2023/07/09 19:36:21;;;;;;;4.20;2.23;;;;;;;20.97;59.99;96893.38;10446330;28;20445;-31
2023/07/09 19:41:23;;;;;;;2.20;1.73;;;;;;;21.19;60.13;96894.88;10438873;28;20036;-32
2023/07/09 19:46:28;;;;;;;4.50;2.20;;;;;;;21.26;59.58;96894.84;10437129;28;20653;-31
2023/07/09 19:51:28;;;;;;;4.90;1.90;;;;;;;21.08;59.69;96907.72;10445629;28;20494;-32
2023/07/09 19:56:29;;;;;;;4.78;1.77;;;;;;;21.04;59.42;96903.47;10445110;28;20284;-31
2023/07/09 20:01:29;;;;;;;4.30;1.97;;;;;;;21.00;59.68;96908.59;10447351;28;20051;-31
2023/07/09 20:06:29;;;;;;;3.50;1.37;;;;;;;21.00;59.73;96909.47;10452410;28;20033;-32
2023/07/09 20:11:30;;;;;;;2.87;1.67;;;;;;;20.99;59.74;96914.56;10446778;28;20668;-31
2023/07/09 20:16:33;;;;;;;4.15;1.67;;;;;;;20.95;59.71;96908.63;10451812;28;20291;-31
2023/07/09 20:21:34;;;;;;;2.38;1.55;;;;;;;21.03;60.79;96909.44;10451859;28;20045;-31
2023/07/09 20:26:35;;;;;;;3.83;2.00;;;;;;;21.23;60.02;96912.66;10451936;28;20048;-31
2023/07/09 20:31:35;;;;;;;4.30;1.60;;;;;;;21.27;59.42;96904.16;10443581;28;20383;-31
2023/07/09 20:36:35;;;;;;;5.87;2.00;;;;;;;21.15;59.60;96919.50;10455723;28;20525;-31
2023/07/09 20:41:38;;;;;;;2.07;1.30;;;;;;;21.05;59.50;96917.91;10454102;28;20032;-31
2023/07/09 20:46:40;;;;;;;2.85;1.67;;;;;;;21.00;59.88;96911.16;10454411;28;20037;-31
2023/07/09 20:51:40;;;;;;;2.63;1.65;;;;;;;21.00;59.88;96919.66;10455326;28;20082;-32
2023/07/09 20:56:40;;;;;;;2.63;1.80;;;;;;;20.96;59.94;96917.97;10454863;28;20086;-31
2023/07/09 21:01:42;;;;;;;3.75;1.65;;;;;;;20.99;60.48;96917.94;10449579;28;20040;-31
2023/07/09 21:06:43;;;;;;;5.60;1.60;;;;;;;21.06;61.81;96924.66;10451899;28;20033;-31
2023/07/09 21:11:45;;;;;;;3.90;1.40;;;;;;;21.29;60.71;96927.91;10433867;28;20411;-31
2023/07/09 21:16:47;;;;;;;2.13;1.30;;;;;;;21.29;59.97;96921.97;10445853;28;20122;-32
2023/07/09 21:21:49;;;;;;;2.15;1.52;;;;;;;21.14;59.77;96928.00;10451565;28;20110;-31
2023/07/09 21:26:49;;;;;;;4.40;1.27;;;;;;;21.06;59.88;96934.84;10453132;28;20143;-30
2023/07/09 21:31:52;;;;;;;1.65;1.25;;;;;;;21.03;59.96;96942.53;10453160;28;20064;-31
2023/07/09 21:36:57;;;;;;;1.80;1.20;;;;;;;21.00;59.80;96949.34;10453488;28;20043;-32
2023/07/09 21:41:58;;;;;;;2.33;1.30;;;;;;;20.98;60.04;96954.41;10452602;28;20091;-31
2023/07/09 21:47:03;;;;;;;2.78;1.63;;;;;;;20.97;59.85;96952.75;10453211;28;20484;-31
2023/07/09 21:52:14;;;;;;;2.10;1.20;;;;;;;21.06;60.47;96960.31;10452205;28;20041;-32
2023/07/09 21:57:16;;;;;;;2.05;1.40;;;;;;;21.27;60.24;96965.28;10452971;28;20029;-32
2023/07/09 22:02:19;;;;;;;2.10;0.95;;;;;;;21.28;59.72;96966.09;10451746;28;20036;-32
2023/07/09 22:07:22;;;;;;;1.85;1.52;;;;;;;21.13;59.27;96961.16;10451891;28;20024;-31
2023/07/09 22:12:24;;;;;;;3.53;1.48;;;;;;;21.03;59.40;96970.53;10451951;28;20043;-31
2023/07/09 22:17:28;;;;;;;2.30;1.45;;;;;;;21.00;59.37;96965.47;10451563;28;20033;-31
2023/07/09 22:22:29;;;;;;;3.75;1.77;;;;;;;20.96;59.54;96968.88;10450945;28;20072;-31
2023/07/09 22:27:29;;;;;;;1.15;0.93;;;;;;;20.97;59.82;96988.38;10451138;28;20064;-31
2023/07/09 22:32:30;;;;;;;2.17;1.53;;;;;;;20.97;60.00;96978.19;10450936;28;20123;-31
2023/07/09 22:37:31;;;;;;;2.58;1.17;;;;;;;21.13;60.41;96979.78;10451037;28;20295;-32
2023/07/09 22:42:31;;;;;;;1.45;1.10;;;;;;;21.33;60.14;96983.06;10449271;28;20490;-31
2023/07/09 22:47:31;;;;;;;2.17;1.20;;;;;;;21.28;59.54;96982.25;10451213;28;20033;-31
2023/07/09 22:52:32;;;;;;;1.83;1.13;;;;;;;21.13;59.29;96984.88;10449918;28;20025;-31
2023/07/09 22:57:32;;;;;;;3.17;1.30;;;;;;;21.05;59.45;96973.06;10450666;28;20036;-31
2023/07/09 23:02:33;;;;;;;2.50;1.60;;;;;;;21.02;59.68;96983.25;10444468;28;20407;-31
2023/07/09 23:07:34;;;;;;;1.30;1.02;;;;;;;21.00;59.49;96988.38;10449661;28;20291;-31
2023/07/09 23:12:38;;;;;;;1.73;1.43;;;;;;;20.98;59.46;96981.59;10449840;28;20033;-31
2023/07/09 23:17:39;;;;;;;1.08;0.98;;;;;;;20.97;59.49;96985.81;10446990;28;20118;-31
2023/07/09 23:22:39;;;;;;;1.83;1.43;;;;;;;21.16;60.09;96982.34;10450132;28;20061;-32
2023/07/09 23:27:40;;;;;;;1.97;1.20;;;;;;;21.34;59.53;96979.66;10449444;28;20553;-31